Featherstone, United Kingdom
Current Conditions -  °F | °C
As of 6:20 PM on Sunday 23 Nov 2014 (Local Time) from EGBB Reporting Station
Clear Clear  
Wind Chill: 39°   Ceiling: Unl
Heat Index: 43°   Visibility: 6mi
Dew Point: 37°   Wind: 7mph
Humidity: 81%   Direction: 300°WNW
Pressure: 30.09"   Gusts: NA
Location:  52.64°N, 2.09°W
Report Text: EGBB 231820Z 30006KT CAVOK 06/03 Q1019
Loading
Personal Weather Stations






























Interactive Weather Map New forecast layout! Learn more

10-Day Weather Forecast

Advertisements
Track Severe Weather on mobile